Rockwood, Oregon
Current Conditions -  °F | °C
As of 3:53 PM on Monday 20 Oct 2014 (Local Time) from KTTD Reporting Station
Broken Clouds Broken Clouds  
Wind Chill: 65°   Ceiling: 7500
Heat Index: 65°   Visibility: 10mi
Dew Point: 51°   Wind: 9mph
Humidity: 61%   Direction: 180°S
Pressure: 29.79"   Gusts: NA
Location:  45.5135°N, 122.496°W
Report Text: KTTD 202253Z 18008KT 10SM FEW036 BKN075 BKN100 18/11 A2979 RMK AO2 SLP087 T01830106
Loading
Personal Weather Stations






























Interactive Weather Map
Tropical Storm Tracking
New forecast layout! Learn more

10-Day Weather Forecast

Advertisements
Track Severe Weather on mobile